Time;durP1;ratioP1;P1;durP2;ratioP2;P2;SDS_P1;SDS_P2;PMS_P1;PMS_P2;Temp;Humidity;BMP_temperature;BMP_pressure;BME280_temperature;BME280_humidity;BME280_pressure;Samples;Min_cycle;Max_cycle;Signal;HPM_P1;HPM_P2
2024/03/27 00:01:41;;;;;;;5.17;3.40;;;;;;;;;;5016416;28;20472;-83
2024/03/27 00:04:09;;;;;;;5.67;3.17;;;;;;;;;;5013175;28;20792;-82
2024/03/27 00:06:35;;;;;;;5.33;3.40;;;;;;;;;;5005794;28;20421;-82
2024/03/27 00:09:01;;;;;;;6.70;3.57;;;;;;;;;;5006636;28;20412;-82
2024/03/27 00:11:27;;;;;;;4.67;3.60;;;;;;;;;;5005849;28;20979;-82
2024/03/27 00:13:53;;;;;;;5.47;3.30;;;;;;;;;;5006343;28;20443;-81
2024/03/27 00:16:19;;;;;;;5.30;4.30;;;;;;;;;;5007225;28;20469;-81
2024/03/27 00:18:45;;;;;;;5.60;4.13;;;;;;;;;;5005920;28;20421;-80
2024/03/27 00:21:11;;;;;;;4.17;3.53;;;;;;;;;;5005352;28;20428;-81
2024/03/27 00:23:37;;;;;;;4.80;3.40;;;;;;;;;;5006505;28;20445;-81
2024/03/27 00:26:04;;;;;;;5.80;4.10;;;;;;;;;;5003930;28;20991;-83
2024/03/27 00:28:30;;;;;;;4.60;3.63;;;;;;;;;;5006780;28;20511;-80
2024/03/27 00:30:56;;;;;;;8.63;3.73;;;;;;;;;;5006351;28;20523;-83
2024/03/27 00:33:23;;;;;;;5.80;3.50;;;;;;;;;;5005164;28;20444;-81
2024/03/27 00:35:55;;;;;;;6.97;3.97;;;;;;;;;;5006812;28;20471;-80
2024/03/27 00:38:21;;;;;;;5.10;3.27;;;;;;;;;;5006679;28;20501;-81
2024/03/27 00:40:50;;;;;;;4.83;3.33;;;;;;;;;;5005128;28;20840;-80
2024/03/27 00:43:17;;;;;;;5.80;3.03;;;;;;;;;;5004405;28;20447;-79
2024/03/27 00:45:43;;;;;;;7.83;4.10;;;;;;;;;;5006994;28;20504;-80
2024/03/27 00:48:09;;;;;;;4.23;2.60;;;;;;;;;;5005125;28;20524;-84
2024/03/27 00:50:35;;;;;;;5.13;3.97;;;;;;;;;;5004475;28;20826;-83
2024/03/27 00:53:02;;;;;;;5.40;3.97;;;;;;;;;;5006356;28;20468;-86
2024/03/27 00:55:28;;;;;;;6.63;4.00;;;;;;;;;;5004775;28;20469;-86
2024/03/27 00:57:54;;;;;;;5.87;4.60;;;;;;;;;;5005801;28;20795;-84
2024/03/27 01:00:20;;;;;;;5.80;4.53;;;;;;;;;;5006335;28;20429;-85
2024/03/27 01:02:47;;;;;;;5.03;4.33;;;;;;;;;;5004654;28;20417;-85
2024/03/27 01:05:13;;;;;;;7.93;4.13;;;;;;;;;;5005996;28;20775;-85
2024/03/27 01:07:39;;;;;;;4.10;3.67;;;;;;;;;;5005862;28;20428;-85
2024/03/27 01:10:05;;;;;;;7.23;3.40;;;;;;;;;;5004074;28;20440;-84
2024/03/27 01:12:32;;;;;;;6.20;3.90;;;;;;;;;;5005267;28;20495;-83
2024/03/27 01:14:58;;;;;;;10.17;5.03;;;;;;;;;;5004707;28;20949;-84
2024/03/27 01:17:24;;;;;;;6.67;4.17;;;;;;;;;;5006415;28;20908;-86
2024/03/27 01:19:50;;;;;;;6.83;3.30;;;;;;;;;;5004844;28;20410;-85
2024/03/27 01:22:16;;;;;;;6.20;4.60;;;;;;;;;;5005210;28;20409;-84
2024/03/27 01:24:42;;;;;;;4.07;3.67;;;;;;;;;;5006005;28;20616;-84
2024/03/27 01:27:08;;;;;;;5.00;3.73;;;;;;;;;;5004316;28;20794;-83
2024/03/27 01:29:33;;;;;;;6.17;4.30;;;;;;;;;;5007127;28;20504;-84
2024/03/27 01:31:59;;;;;;;6.00;3.67;;;;;;;;;;5004343;28;20420;-84
2024/03/27 01:34:25;;;;;;;5.70;4.23;;;;;;;;;;5006126;28;20777;-85
2024/03/27 01:36:51;;;;;;;6.40;3.97;;;;;;;;;;5004814;28;20435;-84
2024/03/27 01:39:17;;;;;;;9.70;4.40;;;;;;;;;;5007566;28;20412;-88
2024/03/27 01:41:43;;;;;;;4.93;3.97;;;;;;;;;;4990036;28;20428;-85
2024/03/27 01:44:16;;;;;;;5.20;3.53;;;;;;;;;;5005310;28;20423;-87
2024/03/27 01:46:42;;;;;;;6.20;4.10;;;;;;;;;;5007552;28;20940;-88
2024/03/27 01:49:08;;;;;;;7.70;4.00;;;;;;;;;;5004197;28;20494;-87
2024/03/27 01:51:34;;;;;;;4.80;3.73;;;;;;;;;;5004969;28;20898;-87
2024/03/27 01:54:00;;;;;;;7.77;4.73;;;;;;;;;;5005323;28;20491;-88
2024/03/27 01:56:26;;;;;;;5.20;4.00;;;;;;;;;;5003460;28;20476;-87
2024/03/27 01:58:52;;;;;;;6.60;4.47;;;;;;;;;;5004880;28;20419;-86
2024/03/27 02:01:19;;;;;;;6.47;4.97;;;;;;;;;;5005227;28;20423;-86
2024/03/27 02:03:45;;;;;;;7.23;4.23;;;;;;;;;;5003509;28;20482;-86
2024/03/27 02:06:11;;;;;;;5.43;4.40;;;;;;;;;;5005011;28;20478;-84
2024/03/27 02:08:37;;;;;;;6.43;4.20;;;;;;;;;;5017103;28;20425;-85
2024/03/27 02:11:03;;;;;;;5.80;3.33;;;;;;;;;;5003421;28;20424;-86
2024/03/27 02:13:28;;;;;;;7.23;4.17;;;;;;;;;;5006665;28;20416;-87
2024/03/27 02:16:01;;;;;;;6.33;5.10;;;;;;;;;;5003770;28;20507;-86
2024/03/27 02:18:27;;;;;;;5.60;4.20;;;;;;;;;;5007124;28;20768;-88
2024/03/27 02:20:53;;;;;;;6.17;4.53;;;;;;;;;;5004950;28;20421;-85
2024/03/27 02:23:23;;;;;;;5.63;4.13;;;;;;;;;;5003498;28;20400;-85
2024/03/27 02:26:01;;;;;;;5.77;3.80;;;;;;;;;;5004880;28;20504;-84
2024/03/27 02:28:27;;;;;;;6.20;3.83;;;;;;;;;;5005035;28;20411;-84
2024/03/27 02:30:53;;;;;;;7.07;4.60;;;;;;;;;;5003788;28;20419;-83
2024/03/27 02:33:19;;;;;;;6.30;4.53;;;;;;;;;;5003523;28;20407;-84
2024/03/27 02:35:45;;;;;;;6.70;4.60;;;;;;;;;;5004743;28;20483;-84
2024/03/27 02:38:11;;;;;;;7.63;4.27;;;;;;;;;;5004531;28;20419;-82
2024/03/27 02:40:36;;;;;;;7.37;4.00;;;;;;;;;;5004924;28;20955;-85
2024/03/27 02:43:02;;;;;;;6.47;3.83;;;;;;;;;;5002886;28;20483;-81
2024/03/27 02:45:28;;;;;;;5.23;3.90;;;;;;;;;;5004595;28;20424;-85
2024/03/27 02:47:54;;;;;;;7.83;4.37;;;;;;;;;;5003646;28;20415;-83
2024/03/27 02:50:20;;;;;;;5.60;4.63;;;;;;;;;;5002746;28;20471;-88
2024/03/27 02:52:46;;;;;;;6.47;3.57;;;;;;;;;;5004589;28;20530;-87
2024/03/27 02:55:12;;;;;;;5.90;4.10;;;;;;;;;;5002276;28;20482;-82
2024/03/27 02:57:38;;;;;;;5.97;4.33;;;;;;;;;;5004094;28;20412;-85
2024/03/27 03:00:07;;;;;;;5.37;4.57;;;;;;;;;;5002733;28;20421;-84
2024/03/27 03:02:33;;;;;;;6.83;5.30;;;;;;;;;;5003700;28;20457;-82
2024/03/27 03:04:59;;;;;;;7.50;4.33;;;;;;;;;;5004272;28;20426;-85
2024/03/27 03:07:25;;;;;;;5.13;3.80;;;;;;;;;;5002837;28;20441;-83
2024/03/27 03:09:51;;;;;;;5.13;4.23;;;;;;;;;;5003221;28;20416;-83
2024/03/27 03:12:17;;;;;;;8.33;4.20;;;;;;;;;;5002534;28;20500;-84
2024/03/27 03:14:43;;;;;;;5.80;4.97;;;;;;;;;;5002511;28;20550;-85
2024/03/27 03:17:10;;;;;;;7.47;4.40;;;;;;;;;;5004118;28;20173;-84
2024/03/27 03:19:36;;;;;;;6.97;3.80;;;;;;;;;;5003381;28;20434;-83
2024/03/27 03:22:04;;;;;;;9.27;4.40;;;;;;;;;;5003748;28;20432;-83
2024/03/27 03:24:29;;;;;;;5.27;4.77;;;;;;;;;;5001625;28;20427;-83
2024/03/27 03:26:55;;;;;;;7.60;4.63;;;;;;;;;;5002963;28;20904;-83
2024/03/27 03:29:21;;;;;;;5.00;3.93;;;;;;;;;;5004044;28;20448;-81
2024/03/27 03:31:47;;;;;;;7.53;4.20;;;;;;;;;;5002172;28;20832;-78
2024/03/27 03:34:14;;;;;;;7.90;4.60;;;;;;;;;;5003112;28;20406;-79
2024/03/27 03:36:40;;;;;;;7.70;4.83;;;;;;;;;;5003772;28;20453;-80
2024/03/27 03:39:06;;;;;;;8.67;4.83;;;;;;;;;;5001575;28;20448;-84
2024/03/27 03:41:32;;;;;;;7.80;4.40;;;;;;;;;;5003395;28;20833;-82
2024/03/27 03:43:58;;;;;;;9.23;4.60;;;;;;;;;;5003523;28;20427;-83
2024/03/27 03:46:23;;;;;;;7.20;4.57;;;;;;;;;;5002089;28;20786;-79
2024/03/27 03:48:49;;;;;;;7.83;4.53;;;;;;;;;;5003524;28;20434;-79
2024/03/27 03:51:15;;;;;;;7.30;4.10;;;;;;;;;;5003168;28;20422;-79
2024/03/27 03:53:42;;;;;;;6.37;4.43;;;;;;;;;;5001644;28;20420;-80
2024/03/27 03:56:08;;;;;;;7.17;4.20;;;;;;;;;;5003743;28;20507;-80
2024/03/27 03:58:34;;;;;;;5.93;4.23;;;;;;;;;;5002718;28;20419;-79
2024/03/27 04:01:00;;;;;;;7.70;5.00;;;;;;;;;;5000809;28;20420;-79
2024/03/27 04:03:26;;;;;;;7.63;4.57;;;;;;;;;;5002434;28;20419;-79
2024/03/27 04:05:52;;;;;;;7.90;4.50;;;;;;;;;;5004070;28;20435;-80
2024/03/27 04:08:18;;;;;;;6.13;4.50;;;;;;;;;;5012701;28;20424;-79
2024/03/27 04:10:45;;;;;;;8.60;4.37;;;;;;;;;;5012994;28;20423;-80
2024/03/27 04:13:11;;;;;;;6.07;3.80;;;;;;;;;;5012925;28;20511;-80
2024/03/27 04:15:40;;;;;;;5.03;4.27;;;;;;;;;;5012655;28;20931;-80
2024/03/27 04:18:07;;;;;;;6.83;4.43;;;;;;;;;;5012903;28;20449;-79
2024/03/27 04:20:33;;;;;;;7.07;4.57;;;;;;;;;;5012971;28;20413;-79
2024/03/27 04:22:59;;;;;;;6.80;4.87;;;;;;;;;;5012519;28;20516;-78
2024/03/27 04:25:24;;;;;;;7.53;5.03;;;;;;;;;;5012905;28;20501;-77
2024/03/27 04:27:51;;;;;;;6.77;5.30;;;;;;;;;;5012802;28;20910;-78
2024/03/27 04:30:17;;;;;;;6.43;5.00;;;;;;;;;;5012817;28;20424;-78
2024/03/27 04:32:43;;;;;;;8.47;5.30;;;;;;;;;;5012775;28;20423;-78
2024/03/27 04:35:09;;;;;;;7.17;5.37;;;;;;;;;;5012736;28;20973;-78
2024/03/27 04:37:35;;;;;;;10.73;6.10;;;;;;;;;;5014720;28;20816;-77
2024/03/27 04:40:09;;;;;;;7.70;5.43;;;;;;;;;;5016280;28;20502;-77
2024/03/27 04:42:35;;;;;;;7.17;4.90;;;;;;;;;;5014965;28;20777;-78
2024/03/27 04:45:01;;;;;;;7.20;4.83;;;;;;;;;;5016215;28;20415;-79
2024/03/27 04:47:27;;;;;;;7.13;5.07;;;;;;;;;;5016183;28;20826;-79
2024/03/27 04:49:53;;;;;;;9.30;6.10;;;;;;;;;;5016156;28;20416;-78
2024/03/27 04:52:19;;;;;;;9.23;5.70;;;;;;;;;;5015692;28;20438;-81
2024/03/27 04:54:46;;;;;;;7.97;5.90;;;;;;;;;;5015925;28;20541;-76
2024/03/27 04:57:12;;;;;;;8.37;5.40;;;;;;;;;;5015950;28;20458;-78
2024/03/27 04:59:38;;;;;;;7.90;5.20;;;;;;;;;;5016002;28;20431;-77
2024/03/27 05:02:04;;;;;;;7.50;5.77;;;;;;;;;;5015752;28;20485;-77
2024/03/27 05:04:30;;;;;;;8.07;5.93;;;;;;;;;;5015853;28;20416;-79
2024/03/27 05:06:56;;;;;;;9.50;6.00;;;;;;;;;;5014273;28;20465;-78
2024/03/27 05:09:22;;;;;;;7.77;6.27;;;;;;;;;;5015859;28;20408;-78
2024/03/27 05:11:48;;;;;;;8.53;5.57;;;;;;;;;;5015709;28;20473;-78
2024/03/27 05:14:14;;;;;;;9.60;6.60;;;;;;;;;;5015486;28;20462;-79
2024/03/27 05:16:40;;;;;;;7.60;4.97;;;;;;;;;;5015665;28;20801;-79
2024/03/27 05:19:06;;;;;;;7.50;6.20;;;;;;;;;;5015610;28;20411;-78
2024/03/27 05:21:32;;;;;;;8.30;5.63;;;;;;;;;;5015302;28;20422;-78
2024/03/27 05:23:58;;;;;;;8.60;5.63;;;;;;;;;;5015194;28;20430;-78
2024/03/27 05:26:24;;;;;;;7.83;6.50;;;;;;;;;;5010184;28;20931;-77
2024/03/27 05:28:50;;;;;;;10.80;5.80;;;;;;;;;;5005989;28;20417;-79
2024/03/27 05:31:16;;;;;;;6.83;5.90;;;;;;;;;;5002838;28;20427;-78
2024/03/27 05:33:41;;;;;;;9.67;6.67;;;;;;;;;;5004986;28;20900;-79
2024/03/27 05:36:07;;;;;;;8.03;6.17;;;;;;;;;;5005564;28;21009;-80
2024/03/27 05:38:34;;;;;;;7.97;6.70;;;;;;;;;;5002213;28;20464;-77
2024/03/27 05:40:59;;;;;;;8.67;6.73;;;;;;;;;;5004964;28;20416;-83
2024/03/27 05:43:26;;;;;;;7.73;5.50;;;;;;;;;;5006342;28;20422;-84
2024/03/27 05:45:52;;;;;;;12.70;7.43;;;;;;;;;;5005961;28;20415;-80
2024/03/27 05:48:18;;;;;;;9.33;5.50;;;;;;;;;;5002059;28;20417;-79
2024/03/27 05:50:44;;;;;;;7.23;6.33;;;;;;;;;;5004525;28;20428;-79
2024/03/27 05:53:10;;;;;;;8.80;5.10;;;;;;;;;;5005268;28;20492;-81
2024/03/27 05:55:36;;;;;;;6.77;6.00;;;;;;;;;;5003636;28;20472;-79
2024/03/27 05:58:02;;;;;;;7.43;5.43;;;;;;;;;;5004670;28;20447;-80
2024/03/27 06:00:28;;;;;;;9.03;6.30;;;;;;;;;;5005418;28;20508;-79
2024/03/27 06:02:54;;;;;;;11.63;6.43;;;;;;;;;;5003064;28;20419;-80
2024/03/27 06:05:20;;;;;;;7.13;5.77;;;;;;;;;;5011100;28;20580;-80
2024/03/27 06:07:46;;;;;;;7.87;5.47;;;;;;;;;;5007360;28;20453;-80
2024/03/27 06:10:13;;;;;;;11.87;5.73;;;;;;;;;;5005714;28;20527;-80
2024/03/27 06:12:38;;;;;;;7.97;5.63;;;;;;;;;;5019991;28;20424;-79
2024/03/27 06:15:05;;;;;;;9.53;7.10;;;;;;;;;;5002955;28;21000;-79
2024/03/27 06:17:31;;;;;;;7.13;5.93;;;;;;;;;;4994898;28;20836;-80
2024/03/27 06:19:56;;;;;;;9.97;6.30;;;;;;;;;;4994911;28;20420;-81
2024/03/27 06:22:22;;;;;;;9.43;6.60;;;;;;;;;;4994508;28;20468;-81
2024/03/27 06:24:49;;;;;;;8.10;5.97;;;;;;;;;;4993934;28;20749;-80
2024/03/27 06:27:15;;;;;;;11.10;7.13;;;;;;;;;;4994332;28;20500;-80
2024/03/27 06:29:41;;;;;;;11.00;7.30;;;;;;;;;;4994759;28;20861;-80
2024/03/27 06:32:06;;;;;;;10.47;7.37;;;;;;;;;;4994746;28;20417;-80
2024/03/27 06:34:33;;;;;;;9.23;7.53;;;;;;;;;;4994464;28;20500;-80
2024/03/27 06:36:58;;;;;;;7.90;5.73;;;;;;;;;;4994217;28;20873;-80
2024/03/27 06:39:24;;;;;;;8.57;6.37;;;;;;;;;;4994418;28;20488;-81
2024/03/27 06:41:50;;;;;;;7.80;5.60;;;;;;;;;;4994476;28;20426;-81
2024/03/27 06:44:16;;;;;;;7.87;5.40;;;;;;;;;;4994270;28;20414;-81
2024/03/27 06:46:42;;;;;;;6.77;5.80;;;;;;;;;;4994383;28;20409;-79
2024/03/27 06:49:18;;;;;;;8.00;5.50;;;;;;;;;;4994357;28;20455;-79
2024/03/27 06:51:47;;;;;;;6.50;4.10;;;;;;;;;;4993790;28;20420;-80
2024/03/27 06:54:13;;;;;;;5.47;4.40;;;;;;;;;;5009439;28;20425;-81
2024/03/27 06:56:39;;;;;;;7.00;4.60;;;;;;;;;;4994097;28;20484;-82
2024/03/27 06:59:05;;;;;;;6.30;4.97;;;;;;;;;;4993883;28;20407;-81
2024/03/27 07:01:31;;;;;;;5.03;4.40;;;;;;;;;;4994084;28;20435;-79
2024/03/27 07:03:56;;;;;;;6.83;4.13;;;;;;;;;;4994049;28;20412;-81
2024/03/27 07:06:22;;;;;;;6.00;4.23;;;;;;;;;;4993695;28;20186;-79
2024/03/27 07:08:48;;;;;;;4.80;4.30;;;;;;;;;;5009062;28;20180;-79
2024/03/27 07:11:14;;;;;;;4.53;3.40;;;;;;;;;;5009067;28;20930;-78
2024/03/27 07:13:40;;;;;;;6.73;4.90;;;;;;;;;;4993709;28;20173;-81
2024/03/27 07:16:06;;;;;;;4.33;3.80;;;;;;;;;;4993886;28;20229;-79
2024/03/27 07:18:33;;;;;;;5.33;3.93;;;;;;;;;;4993937;28;20416;-79
2024/03/27 07:20:59;;;;;;;4.90;3.40;;;;;;;;;;4993790;28;20451;-80
2024/03/27 07:23:27;;;;;;;4.97;3.80;;;;;;;;;;4993425;28;20424;-78
2024/03/27 07:25:53;;;;;;;8.60;4.37;;;;;;;;;;5008880;28;20424;-78
2024/03/27 07:28:19;;;;;;;5.03;4.50;;;;;;;;;;4993573;28;20414;-79
2024/03/27 07:30:48;;;;;;;6.27;4.80;;;;;;;;;;4993631;28;20792;-82
2024/03/27 07:33:13;;;;;;;4.77;3.80;;;;;;;;;;4993365;28;20644;-81
2024/03/27 07:35:39;;;;;;;5.10;4.10;;;;;;;;;;4993270;28;20481;-81
2024/03/27 07:38:05;;;;;;;5.30;3.83;;;;;;;;;;4992982;28;20196;-80
2024/03/27 07:40:31;;;;;;;4.97;4.47;;;;;;;;;;4993357;28;20747;-80
2024/03/27 07:42:57;;;;;;;5.13;4.20;;;;;;;;;;4993265;28;20169;-79
2024/03/27 07:45:23;;;;;;;6.60;4.07;;;;;;;;;;4993334;28;20420;-85
2024/03/27 07:47:49;;;;;;;6.00;4.40;;;;;;;;;;4993313;28;20179;-82
2024/03/27 07:50:15;;;;;;;5.33;4.37;;;;;;;;;;4993428;28;20520;-83
2024/03/27 07:52:42;;;;;;;6.83;4.00;;;;;;;;;;4993082;28;20461;-81
2024/03/27 07:55:08;;;;;;;7.87;4.10;;;;;;;;;;4993184;28;20503;-81
2024/03/27 07:57:34;;;;;;;5.00;3.50;;;;;;;;;;4993309;28;20450;-81
2024/03/27 08:00:00;;;;;;;6.33;3.90;;;;;;;;;;4993328;28;20415;-81
2024/03/27 08:02:26;;;;;;;5.77;4.30;;;;;;;;;;5008450;28;20426;-81
2024/03/27 08:04:52;;;;;;;6.13;3.80;;;;;;;;;;4993247;28;20899;-80
2024/03/27 08:07:18;;;;;;;4.90;4.10;;;;;;;;;;4992859;28;20412;-83
2024/03/27 08:09:51;;;;;;;5.30;4.10;;;;;;;;;;4993171;28;20760;-82
2024/03/27 08:12:17;;;;;;;7.30;4.17;;;;;;;;;;4996531;28;20406;-81
2024/03/27 08:14:47;;;;;;;4.57;4.13;;;;;;;;;;4996718;28;20477;-85
2024/03/27 08:17:13;;;;;;;5.37;4.07;;;;;;;;;;4996924;28;20475;-85
2024/03/27 08:19:42;;;;;;;4.93;4.33;;;;;;;;;;4997011;28;20800;-84
2024/03/27 08:22:08;;;;;;;4.60;4.10;;;;;;;;;;4996525;28;20187;-82
2024/03/27 08:24:34;;;;;;;5.43;4.63;;;;;;;;;;4996673;28;20453;-86
2024/03/27 08:27:01;;;;;;;4.63;4.10;;;;;;;;;;4996751;28;20454;-85
2024/03/27 08:29:27;;;;;;;4.40;4.00;;;;;;;;;;4996110;28;20410;-83
2024/03/27 08:31:53;;;;;;;9.93;4.70;;;;;;;;;;5011242;28;20958;-81
2024/03/27 08:34:19;;;;;;;5.97;4.67;;;;;;;;;;4996366;28;20199;-83
2024/03/27 08:36:45;;;;;;;5.53;4.40;;;;;;;;;;4995881;28;20874;-81
2024/03/27 08:39:11;;;;;;;6.40;4.13;;;;;;;;;;4996600;28;20204;-84
2024/03/27 08:41:37;;;;;;;4.67;3.70;;;;;;;;;;4996575;28;20196;-81
2024/03/27 08:44:03;;;;;;;4.83;3.87;;;;;;;;;;5011551;28;20610;-80
2024/03/27 08:46:32;;;;;;;8.27;5.23;;;;;;;;;;4996324;28;20509;-82
2024/03/27 08:48:58;;;;;;;7.60;4.00;;;;;;;;;;4996287;28;20440;-81
2024/03/27 08:51:24;;;;;;;8.87;5.30;;;;;;;;;;4995570;28;20904;-81
2024/03/27 08:53:50;;;;;;;4.13;3.17;;;;;;;;;;4996220;28;20422;-81
2024/03/27 08:56:16;;;;;;;5.60;4.90;;;;;;;;;;4995939;28;20470;-85
2024/03/27 08:58:42;;;;;;;4.87;4.40;;;;;;;;;;4995297;28;20744;-83
2024/03/27 09:01:14;;;;;;;4.90;4.17;;;;;;;;;;4996073;28;20189;-83
2024/03/27 09:03:41;;;;;;;6.17;5.20;;;;;;;;;;4996096;28;20418;-84
2024/03/27 09:06:07;;;;;;;6.23;5.37;;;;;;;;;;4995717;28;20806;-85
2024/03/27 09:08:33;;;;;;;5.00;4.50;;;;;;;;;;4995902;28;20790;-84
2024/03/27 09:10:59;;;;;;;4.90;3.77;;;;;;;;;;4995915;28;20413;-80
2024/03/27 09:13:25;;;;;;;7.03;5.27;;;;;;;;;;4995816;28;20193;-83
2024/03/27 09:15:51;;;;;;;5.50;4.73;;;;;;;;;;4995642;28;20573;-82
2024/03/27 09:18:17;;;;;;;5.23;3.60;;;;;;;;;;4995793;28;20421;-85
2024/03/27 09:20:43;;;;;;;6.20;4.00;;;;;;;;;;4995727;28;20422;-85
2024/03/27 09:23:09;;;;;;;6.87;4.93;;;;;;;;;;4995288;28;20414;-82
2024/03/27 09:25:35;;;;;;;5.37;4.40;;;;;;;;;;4995967;28;20504;-81
2024/03/27 09:28:01;;;;;;;6.10;4.43;;;;;;;;;;4995590;28;20186;-80
2024/03/27 09:30:27;;;;;;;7.10;5.40;;;;;;;;;;4994170;28;20209;-80
2024/03/27 09:32:53;;;;;;;5.60;4.20;;;;;;;;;;4995628;28;20425;-83
2024/03/27 09:35:19;;;;;;;5.53;4.40;;;;;;;;;;4995399;28;20830;-81
2024/03/27 09:37:45;;;;;;;6.97;5.40;;;;;;;;;;4995295;28;20449;-81
2024/03/27 09:40:11;;;;;;;4.60;4.20;;;;;;;;;;4995972;28;20712;-86
2024/03/27 09:42:37;;;;;;;5.13;4.60;;;;;;;;;;4995477;28;20291;-87
2024/03/27 09:45:03;;;;;;;4.60;4.20;;;;;;;;;;4995515;28;20458;-82
2024/03/27 09:47:32;;;;;;;5.27;4.60;;;;;;;;;;4995512;28;20453;-84
2024/03/27 09:49:58;;;;;;;6.47;4.90;;;;;;;;;;4995414;28;20414;-85
2024/03/27 09:52:24;;;;;;;5.10;4.60;;;;;;;;;;4994722;28;20780;-85
2024/03/27 09:54:52;;;;;;;5.73;4.20;;;;;;;;;;4995082;28;20466;-87
2024/03/27 09:57:18;;;;;;;7.50;4.70;;;;;;;;;;5010076;28;20426;-86
2024/03/27 09:59:44;;;;;;;5.70;4.80;;;;;;;;;;4995130;28;20415;-85
2024/03/27 10:02:12;;;;;;;5.93;4.80;;;;;;;;;;4995053;28;20191;-84
2024/03/27 10:04:38;;;;;;;5.57;4.10;;;;;;;;;;5010026;28;20522;-83
2024/03/27 10:07:04;;;;;;;4.80;4.30;;;;;;;;;;4994510;28;20429;-85
2024/03/27 10:09:30;;;;;;;6.93;4.93;;;;;;;;;;4995013;28;20423;-84
2024/03/27 10:11:56;;;;;;;6.03;4.90;;;;;;;;;;4994757;28;20423;-86
2024/03/27 10:14:22;;;;;;;5.40;4.43;;;;;;;;;;4994660;28;20531;-84
2024/03/27 10:16:48;;;;;;;6.03;4.40;;;;;;;;;;4994718;28;20473;-83
2024/03/27 10:19:14;;;;;;;5.57;4.07;;;;;;;;;;4994782;28;20176;-84
2024/03/27 10:21:43;;;;;;;5.00;4.13;;;;;;;;;;4994271;28;20416;-81
2024/03/27 10:24:09;;;;;;;6.37;5.70;;;;;;;;;;5009784;28;20514;-83
2024/03/27 10:26:34;;;;;;;5.70;4.33;;;;;;;;;;5014145;28;20552;-85
2024/03/27 10:29:01;;;;;;;4.77;4.10;;;;;;;;;;5014241;28;20414;-83
2024/03/27 10:31:27;;;;;;;4.83;4.33;;;;;;;;;;5014134;28;20793;-83
2024/03/27 10:33:53;;;;;;;4.50;4.10;;;;;;;;;;5013581;28;20898;-85
2024/03/27 10:36:24;;;;;;;6.97;4.53;;;;;;;;;;5013677;28;20481;-86
2024/03/27 10:38:54;;;;;;;6.60;5.00;;;;;;;;;;5012779;28;20513;-86
2024/03/27 10:41:21;;;;;;;6.23;4.57;;;;;;;;;;5014014;28;20485;-86
2024/03/27 10:43:47;;;;;;;5.80;4.53;;;;;;;;;;5014007;28;20426;-87
2024/03/27 10:46:15;;;;;;;5.63;4.57;;;;;;;;;;5013757;28;20413;-85
2024/03/27 10:48:41;;;;;;;4.53;4.13;;;;;;;;;;5012514;28;20789;-83
2024/03/27 10:51:08;;;;;;;4.70;4.23;;;;;;;;;;5013287;28;20424;-83
2024/03/27 10:53:34;;;;;;;5.70;4.60;;;;;;;;;;5012366;28;20513;-86
2024/03/27 10:56:00;;;;;;;5.40;4.83;;;;;;;;;;5013583;28;20831;-84
2024/03/27 10:58:27;;;;;;;5.53;5.00;;;;;;;;;;5013641;28;20402;-85
2024/03/27 11:00:53;;;;;;;4.43;4.03;;;;;;;;;;5013532;28;20418;-84
2024/03/27 11:03:19;;;;;;;4.73;4.10;;;;;;;;;;5013448;28;20422;-84
2024/03/27 11:05:46;;;;;;;4.60;3.60;;;;;;;;;;5012054;28;20428;-86
2024/03/27 11:08:12;;;;;;;5.90;5.30;;;;;;;;;;5013571;28;20190;-85
2024/03/27 11:10:38;;;;;;;7.10;4.70;;;;;;;;;;5013475;28;20422;-86
2024/03/27 11:13:04;;;;;;;5.77;4.67;;;;;;;;;;5013396;28;20410;-86
2024/03/27 11:15:32;;;;;;;5.60;4.40;;;;;;;;;;5011803;28;20480;-86
2024/03/27 11:17:58;;;;;;;5.37;4.87;;;;;;;;;;5013556;28;20480;-86
2024/03/27 11:20:25;;;;;;;7.20;4.63;;;;;;;;;;5013437;28;20398;-87
2024/03/27 11:22:55;;;;;;;6.87;4.90;;;;;;;;;;5011846;28;20464;-87
2024/03/27 11:25:24;;;;;;;5.90;4.83;;;;;;;;;;5013330;28;20505;-83
2024/03/27 11:27:50;;;;;;;6.97;5.07;;;;;;;;;;5010367;28;20484;-84
2024/03/27 11:30:17;;;;;;;8.80;5.63;;;;;;;;;;5002650;28;20417;-84
2024/03/27 11:32:44;;;;;;;6.73;5.10;;;;;;;;;;5002646;28;20433;-84
2024/03/27 11:35:10;;;;;;;5.43;4.60;;;;;;;;;;5002151;28;20473;-85
2024/03/27 11:37:39;;;;;;;5.00;4.50;;;;;;;;;;5003695;28;20467;-82
2024/03/27 11:40:05;;;;;;;6.33;5.73;;;;;;;;;;4993645;28;20423;-83
2024/03/27 11:42:31;;;;;;;5.10;4.60;;;;;;;;;;4994492;28;20411;-86
2024/03/27 11:44:57;;;;;;;7.07;4.43;;;;;;;;;;4994146;28;20433;-86
2024/03/27 11:47:23;;;;;;;6.20;4.70;;;;;;;;;;4999576;28;20442;-85
2024/03/27 11:49:49;;;;;;;5.83;4.50;;;;;;;;;;4999965;28;20889;-88
2024/03/27 11:52:15;;;;;;;5.33;4.43;;;;;;;;;;4997548;28;20210;-88
2024/03/27 11:54:41;;;;;;;7.10;5.27;;;;;;;;;;5006115;28;20425;-84
2024/03/27 11:57:06;;;;;;;5.77;4.30;;;;;;;;;;5017332;28;20421;-84
2024/03/27 11:59:32;;;;;;;5.87;5.17;;;;;;;;;;5017650;28;20411;-83
2024/03/27 12:02:02;;;;;;;6.90;5.17;;;;;;;;;;5016271;28;20179;-82
2024/03/27 12:04:29;;;;;;;7.47;5.80;;;;;;;;;;5017137;28;20521;-82
2024/03/27 12:06:55;;;;;;;6.43;4.87;;;;;;;;;;5016564;28;20495;-83
2024/03/27 12:09:21;;;;;;;7.47;4.63;;;;;;;;;;5016806;28;20470;-83
2024/03/27 12:11:47;;;;;;;6.00;4.87;;;;;;;;;;5011327;28;20425;-83
2024/03/27 12:14:17;;;;;;;5.37;4.03;;;;;;;;;;5000541;28;20466;-85
2024/03/27 12:16:43;;;;;;;6.90;4.40;;;;;;;;;;4996956;28;20516;-83
2024/03/27 12:19:10;;;;;;;6.13;4.37;;;;;;;;;;4997016;28;20424;-84
2024/03/27 12:21:36;;;;;;;7.10;4.40;;;;;;;;;;4996651;28;20431;-87
2024/03/27 12:24:02;;;;;;;5.47;4.60;;;;;;;;;;4996034;28;20765;-83
2024/03/27 12:26:28;;;;;;;5.23;4.50;;;;;;;;;;4995661;28;20474;-83
2024/03/27 12:28:54;;;;;;;5.17;4.67;;;;;;;;;;4996977;28;20720;-89
2024/03/27 12:31:21;;;;;;;5.40;4.50;;;;;;;;;;4997587;28;20417;-85
2024/03/27 12:33:47;;;;;;;5.00;4.40;;;;;;;;;;4997080;28;20180;-85
2024/03/27 12:36:13;;;;;;;6.53;4.93;;;;;;;;;;4996652;28;21002;-83
2024/03/27 12:38:39;;;;;;;6.27;5.50;;;;;;;;;;5008061;28;20707;-90
2024/03/27 12:41:05;;;;;;;7.50;5.23;;;;;;;;;;5016544;28;20230;-88
2024/03/27 12:43:31;;;;;;;4.30;3.90;;;;;;;;;;5015575;28;20422;-87
2024/03/27 12:45:57;;;;;;;8.63;4.90;;;;;;;;;;5017464;28;20174;-87
2024/03/27 12:48:23;;;;;;;5.50;4.63;;;;;;;;;;5013471;28;20637;-89
2024/03/27 12:50:50;;;;;;;7.50;4.73;;;;;;;;;;4997755;28;20215;-89
2024/03/27 12:53:15;;;;;;;6.00;4.77;;;;;;;;;;4998355;28;20915;-86
2024/03/27 12:55:42;;;;;;;6.43;4.50;;;;;;;;;;5005101;28;20476;-88
2024/03/27 12:58:09;;;;;;;6.60;4.73;;;;;;;;;;5001030;28;20176;-87
2024/03/27 13:00:35;;;;;;;6.33;4.60;;;;;;;;;;4996152;28;20406;-89
2024/03/27 13:03:01;;;;;;;5.87;4.40;;;;;;;;;;4996219;28;20415;-86
2024/03/27 13:05:26;;;;;;;8.33;4.63;;;;;;;;;;4995820;28;20179;-90
2024/03/27 13:07:52;;;;;;;4.90;4.40;;;;;;;;;;4996176;28;20179;-85
2024/03/27 13:10:19;;;;;;;5.70;5.10;;;;;;;;;;5024472;28;20237;-85
2024/03/27 13:12:45;;;;;;;5.87;5.27;;;;;;;;;;5019892;28;20221;-88
2024/03/27 13:15:11;;;;;;;6.40;5.50;;;;;;;;;;5008970;28;20568;-88
2024/03/27 13:17:37;;;;;;;6.80;5.50;;;;;;;;;;5015495;28;20789;-88
2024/03/27 13:20:03;;;;;;;5.80;4.73;;;;;;;;;;5015928;28;20414;-88
2024/03/27 13:22:29;;;;;;;5.93;4.67;;;;;;;;;;5015392;28;20187;-86
2024/03/27 13:24:55;;;;;;;5.90;4.60;;;;;;;;;;5015809;28;20468;-89
2024/03/27 13:27:21;;;;;;;5.13;4.63;;;;;;;;;;5008550;28;20588;-86
2024/03/27 13:29:47;;;;;;;9.33;4.87;;;;;;;;;;5015597;28;20179;-84
2024/03/27 13:32:13;;;;;;;6.80;4.50;;;;;;;;;;5015645;28;20429;-86
2024/03/27 13:34:39;;;;;;;6.90;5.33;;;;;;;;;;5011833;28;20547;-86
2024/03/27 13:37:05;;;;;;;6.47;4.47;;;;;;;;;;5015386;28;20566;-88
2024/03/27 13:39:31;;;;;;;8.87;5.20;;;;;;;;;;5015343;28;20171;-85
2024/03/27 13:41:57;;;;;;;6.90;5.40;;;;;;;;;;5015660;28;20418;-86
2024/03/27 13:44:23;;;;;;;6.43;5.20;;;;;;;;;;5016163;28;20438;-87
2024/03/27 13:46:49;;;;;;;7.60;5.17;;;;;;;;;;5010350;28;20787;-86
2024/03/27 13:49:15;;;;;;;5.30;4.53;;;;;;;;;;5004197;28;20187;-91
2024/03/27 13:51:40;;;;;;;10.53;5.57;;;;;;;;;;4996372;28;20170;-88
2024/03/27 13:54:06;;;;;;;7.83;4.87;;;;;;;;;;4997082;28;20421;-89
2024/03/27 13:56:32;;;;;;;7.10;4.70;;;;;;;;;;4995658;28;20603;-82
2024/03/27 13:58:58;;;;;;;7.77;5.10;;;;;;;;;;4997295;28;20765;-82
2024/03/27 14:01:24;;;;;;;6.80;4.23;;;;;;;;;;4997399;28;20424;-82
2024/03/27 14:03:50;;;;;;;7.57;4.93;;;;;;;;;;4994869;28;20536;-82
2024/03/27 14:06:16;;;;;;;6.60;5.43;;;;;;;;;;4994713;28;20183;-80
2024/03/27 14:08:42;;;;;;;8.07;4.37;;;;;;;;;;4994146;28;20181;-80
2024/03/27 14:11:08;;;;;;;5.73;4.53;;;;;;;;;;4994601;28;20174;-80
2024/03/27 14:13:34;;;;;;;5.90;4.17;;;;;;;;;;5007417;28;20661;-80
2024/03/27 14:16:00;;;;;;;6.17;5.43;;;;;;;;;;5014214;28;20250;-80
2024/03/27 14:18:26;;;;;;;10.93;5.67;;;;;;;;;;5014489;28;20408;-80
2024/03/27 14:20:52;;;;;;;6.40;5.37;;;;;;;;;;5014168;28;20786;-80
2024/03/27 14:23:19;;;;;;;6.23;4.50;;;;;;;;;;5013178;28;20418;-80
2024/03/27 14:25:45;;;;;;;6.50;4.80;;;;;;;;;;5014192;28;20416;-80
2024/03/27 14:28:11;;;;;;;6.77;4.77;;;;;;;;;;5014110;28;20422;-80
2024/03/27 14:30:37;;;;;;;6.60;5.00;;;;;;;;;;5014215;28;20705;-80
2024/03/27 14:33:03;;;;;;;7.07;4.90;;;;;;;;;;5012801;28;20443;-80
2024/03/27 14:35:29;;;;;;;7.50;3.97;;;;;;;;;;5013065;28;20483;-80
2024/03/27 14:37:55;;;;;;;6.57;4.80;;;;;;;;;;5014061;28;20890;-80